Victor Silva

Scout - Internacional
6 Jan 2028
Thursday
Process

Personality

Adaptability (11) Ambition (14) Controversy (6) Loyalty (19) Pressure (18) Professionalism (1) Sportsmanship (1) Temperament (10)

Profile

Coaching Style Democratic
License Continental Pro
Determination 12
Man Management 12
Motivating 13
Discipline 9
Job Satisfaction
100%
Fatigue
0%
Role Scout
Wage 79.6K p/w
Contract 14.03.2029

Performance

Behaviour Good
Training Effectiveness
41%
Player Development
30%
Injury Prevention
45%
Tactical Implementation
35%

Recent Events

Attended a recruitment meeting now
Attended a recruitment meeting 7d ago
Attended a recruitment meeting 14d ago
Attended a recruitment meeting 21d ago
Attended a recruitment meeting 28d ago
Attended a recruitment meeting 35d ago
Assessed a player 35d ago
Presented a dossier to the board 35d ago

Currently Monitoring

91
Player Club Status Ability Confidence Watched Last Observed Latest Vote
Cristian Medina Botafogo Active 123 / 129 40% 2 04.01.2028 -
Matheus Pereira Cruzeiro Active 149 / 144 40% 1 04.01.2028 -
Ignacio Laquintana Bragantino Active 113 / 117 58% 1 27.12.2027 -
Victor Sá São Paulo Active 132 / 125 58% 1 13.12.2027 Approve
Tadeo Allende Inter Miami CF Active 134 / 125 40% 2 30.11.2027 -
Giorgian De Arrascaeta Flamengo Active 146 / 135 55% 1 28.06.2027 -
Mats Wieffer Brighton Active 142 / 152 40% 2 31.05.2027 -
Kyle Walker-Peters West Ham United Active 135 / 141 40% 1 31.05.2027 -
Amine Adli Bournemouth Active 144 / 146 40% 1 30.05.2027 -
Xavi Simons Tottenham Active 151 / 152 40% 1 27.05.2027 -
Giorgi Chakvetadze Watford Active 120 / 121 40% 1 25.05.2027 -
Kevin Fulham Active 144 / 157 40% 1 25.05.2027 -
Yankuba Minteh Brighton Active 161 / 161 40% 2 24.05.2027 -
Ethan Galbraith Swansea City Active 128 / 124 40% 2 23.05.2027 -
Luke McNally Bristol City Active 132 / 129 40% 1 23.05.2027 -
Adam Wharton Crystal Palace Active 143 / 147 40% 2 21.05.2027 -
Welington Southampton Active 139 / 125 40% 1 21.05.2027 -
Yehor Yarmoliuk Brentford Active 156 / 151 40% 3 17.05.2027 -
Adrien Truffert Bournemouth Active 159 / 144 40% 1 17.05.2027 Needs More Info
Tom Fellows Southampton Active 125 / 137 40% 3 14.05.2027 -
Matt O'Riley Brighton Active 142 / 137 40% 1 14.05.2027 -
Shea Charles Southampton Active 141 / 133 40% 4 11.05.2027 -
Dango Ouattara Brentford Active 150 / 139 40% 3 10.05.2027 -
Alexis Saelemaekers AC Milan Active 163 / 144 40% 1 08.05.2027 -
Borja Sainz Fiorentina Active 155 / 141 40% 1 04.05.2027 -
Matías Soulé AS Roma Active 164 / 162 40% 3 03.05.2027 -
Georginio Rutter Brighton Active 141 / 142 40% 1 03.05.2027 -
Nico González Newcastle United Active 153 / 159 40% 1 29.04.2027 -
Curtis Jones Inter Active 157 / 163 40% 2 28.04.2027 -
Florentino Luís Ipswich Town Active 133 / 138 40% 1 28.04.2027 -
Jason Knight Bristol City Active 122 / 134 40% 1 27.04.2027 -
Derry Murkin Derby County Active 127 / 123 40% 2 25.04.2027 -
Callum Doyle Wrexham Active 135 / 135 40% 1 25.04.2027 -
Jacob Ramsey Newcastle United Active 145 / 147 40% 1 23.04.2027 -
Figueiredo Alverca Active 123 / 127 40% 1 23.04.2027 -
Jordan Holsgrove Estoril Praia Active 138 / 124 40% 2 22.04.2027 -
Ryan Sessegnon Fulham Active 149 / 146 40% 1 22.04.2027 -
Giacomo Raspadori Atalanta Active 139 / 148 40% 1 18.04.2027 -
Micky van de Ven Tottenham Active 153 / 159 40% 1 16.04.2027 -
Roberto Fernández Braga Active 137 / 143 40% 3 15.04.2027 -
Gianluca Prestianni Benfica Active 146 / 135 40% 2 14.04.2027 -
Morgan Whittaker Middlesbrough Active 134 / 124 40% 2 14.04.2027 -
Iván Fresneda Sporting CP Active 137 / 143 40% 7 13.04.2027 -
Mario Dorgeles Braga Active 127 / 133 40% 3 13.04.2027 -
Nathan Collins Brentford Active 137 / 139 40% 1 03.04.2027 -
Zeno Debast Sporting CP Active 135 / 140 40% 1 03.04.2027 -
Ozziel Herrera Tigres Active 128 / 127 40% 2 02.04.2027 -
Pau Víctor AVS Active 135 / 146 40% 2 02.04.2027 -
Marcelo Allende Mamelodi Sundowns Active 114 / 128 40% 4 27.03.2027 -
Víctor Gómez Braga Active 144 / 144 40% 1 27.03.2027 -
Christian Krasnodar Active 147 / 128 40% 1 26.03.2027 -
Jacques Ekomié Wrexham Active 129 / 122 40% 1 26.03.2027 -
Francisco Moura Lusitânia Lourosa Active 134 / 137 40% 1 24.03.2027 -
Tino Livramento Newcastle United Active 164 / 151 40% 1 22.03.2027 -
Finn Azaz Southampton Active 135 / 136 40% 1 17.03.2027 -
Kwadwo Baah Watford Active 124 / 135 40% 1 12.03.2027 -
Félix Lemaréchal Club Brugge Active 137 / 129 40% 1 09.03.2027 -
Paulinho Palmeiras Active 150 / 149 40% 1 07.03.2027 -
Santi García Gil Vicente Active 132 / 135 40% 1 04.03.2027 -
Heorhii Sudakov Benfica Active 141 / 143 40% 1 27.02.2027 -
Luís Guilherme Sporting CP Active 126 / 134 40% 3 14.02.2027 -
Diego Lainez Tigres Active 138 / 136 40% 1 14.02.2027 -
William Gomes Porto Active 134 / 142 40% 2 26.01.2027 -
Erick Sánchez OGC Nice Active 154 / 142 40% 1 22.01.2027 -
Marquinhos Spartak Moscow Active 113 / 137 40% 2 12.01.2027 -
Rémi Lemoine Chamois Niortais Active 165 / 154 40% 1 26.11.2026 -
Lucas Duarte Felgueiras Active 114 / 98 40% 1 23.11.2026 -
Yousef Salech Cardiff City Active 137 / 132 40% 1 23.11.2026 -
Yanis Begraoui Estoril Praia Active 123 / 130 40% 3 21.11.2026 -
Vinícius Lopes Santa Clara Active 129 / 119 40% 1 07.11.2026 -
Manu Pozo Torreense Active 132 / 117 40% 2 05.11.2026 -
Pedro Bondo Famalicao Active 125 / 126 40% 1 05.11.2026 -
Martín Tejón Maritimo Active 108 / 122 40% 3 04.11.2026 -
Gustavo Silva Vitoria Guimaraes Active 124 / 124 40% 1 31.10.2026 -
Nicolò Tresoldi Club Brugge Active 121 / 142 40% 1 27.10.2026 -
Gabriel Veron Porto Active 115 / 135 40% 3 17.10.2026 -
Jalen Blesa Rio Ave Active 122 / 127 40% 1 14.10.2026 -
Dawda Camara Alverca Active 108 / 123 40% 1 14.10.2026 -
Vinicinho Bragantino Active 126 / 127 40% 1 12.10.2026 -
Lohann Doucet Vitoria Guimaraes Active 109 / 113 40% 1 12.10.2026 -
Manuel Ospina Cortulua Active 122 / 118 40% 1 11.10.2026 -
Fotis Ioannidis Rio Ave Active 146 / 129 40% 1 11.10.2026 -
Alfonso Trezza Arouca Active 118 / 128 40% 1 09.10.2026 -
Rodrigo Pinheiro Famalicao Active 126 / 137 40% 1 28.09.2026 -
Zé Leite Leixões Active 121 / 123 40% 1 24.09.2026 -
Vangelis Pavlidis Twente Active 152 / 160 40% 1 12.09.2026 -
Elliot Anderson Manchester City Active 149 / 156 40% 1 10.09.2026 -
Mathias De Amorim Famalicao Active 118 / 142 40% 2 08.09.2026 -
Victor Froholdt Porto Active 143 / 151 40% 1 30.08.2026 -
Diogo Travassos Braga Active 110 / 121 40% 1 01.08.2026 -
Alberto Costa Porto Active 128 / 146 40% 1 01.08.2026 -